sensor_id;sensor_type;location;lat;lon;timestamp;noise_LAeq;noise_LA_min;noise_LA_max;noise_LA01;noise_LA95
40103;Laerm;25814;48.550;9.108;2023-06-10T00:00:43;31.33;29.93;45.21;;
40103;Laerm;25814;48.550;9.108;2023-06-10T00:03:10;30.91;29.81;33.90;;
40103;Laerm;25814;48.550;9.108;2023-06-10T00:05:36;30.93;29.74;35.41;;
40103;Laerm;25814;48.550;9.108;2023-06-10T00:08:05;31.28;29.94;46.04;;
40103;Laerm;25814;48.550;9.108;2023-06-10T00:10:35;31.63;29.98;38.85;;
40103;Laerm;25814;48.550;9.108;2023-06-10T00:13:06;31.06;29.84;45.14;;
40103;Laerm;25814;48.550;9.108;2023-06-10T00:15:37;31.12;29.74;33.91;;
40103;Laerm;25814;48.550;9.108;2023-06-10T00:18:04;32.14;29.63;43.19;;
40103;Laerm;25814;48.550;9.108;2023-06-10T00:20:31;31.42;29.80;44.48;;
40103;Laerm;25814;48.550;9.108;2023-06-10T00:22:58;35.79;29.83;51.55;;
40103;Laerm;25814;48.550;9.108;2023-06-10T00:25:27;30.92;29.81;33.73;;
40103;Laerm;25814;48.550;9.108;2023-06-10T00:27:53;31.33;29.81;44.86;;
40103;Laerm;25814;48.550;9.108;2023-06-10T00:30:19;31.01;29.88;33.70;;
40103;Laerm;25814;48.550;9.108;2023-06-10T00:32:46;30.89;29.72;33.70;;
40103;Laerm;25814;48.550;9.108;2023-06-10T00:35:13;31.21;29.73;45.93;;
40103;Laerm;25814;48.550;9.108;2023-06-10T00:37:39;31.47;29.76;51.79;;
40103;Laerm;25814;48.550;9.108;2023-06-10T00:40:06;30.89;29.81;33.37;;
40103;Laerm;25814;48.550;9.108;2023-06-10T00:42:34;30.98;29.73;34.81;;
40103;Laerm;25814;48.550;9.108;2023-06-10T00:45:00;31.20;29.92;46.60;;
40103;Laerm;25814;48.550;9.108;2023-06-10T00:47:28;30.99;29.85;34.34;;
40103;Laerm;25814;48.550;9.108;2023-06-10T00:49:54;31.01;29.70;39.25;;
40103;Laerm;25814;48.550;9.108;2023-06-10T00:52:22;31.06;29.65;33.94;;
40103;Laerm;25814;48.550;9.108;2023-06-10T00:54:52;31.20;29.74;40.75;;
40103;Laerm;25814;48.550;9.108;2023-06-10T00:57:19;31.12;29.86;47.22;;
40103;Laerm;25814;48.550;9.108;2023-06-10T00:59:48;31.01;29.86;38.20;;
40103;Laerm;25814;48.550;9.108;2023-06-10T01:02:15;31.04;29.85;41.08;;
40103;Laerm;25814;48.550;9.108;2023-06-10T01:04:42;31.34;29.97;36.39;;
40103;Laerm;25814;48.550;9.108;2023-06-10T01:07:14;31.24;29.87;45.44;;
40103;Laerm;25814;48.550;9.108;2023-06-10T01:10:06;30.92;29.87;36.26;;
40103;Laerm;25814;48.550;9.108;2023-06-10T01:12:45;31.25;29.87;48.09;;
40103;Laerm;25814;48.550;9.108;2023-06-10T01:15:17;31.10;29.97;38.10;;
40103;Laerm;25814;48.550;9.108;2023-06-10T01:18:04;31.31;29.92;47.91;;
40103;Laerm;25814;48.550;9.108;2023-06-10T01:20:37;30.99;29.83;33.91;;
40103;Laerm;25814;48.550;9.108;2023-06-10T01:23:06;33.70;29.88;45.82;;
40103;Laerm;25814;48.550;9.108;2023-06-10T01:25:37;31.47;29.86;37.44;;
40103;Laerm;25814;48.550;9.108;2023-06-10T01:33:28;31.01;29.79;33.81;;
40103;Laerm;25814;48.550;9.108;2023-06-10T01:35:58;33.48;29.88;57.67;;
40103;Laerm;25814;48.550;9.108;2023-06-10T01:38:43;30.94;29.91;37.61;;
40103;Laerm;25814;48.550;9.108;2023-06-10T01:41:13;30.95;29.91;33.73;;
40103;Laerm;25814;48.550;9.108;2023-06-10T01:43:39;31.19;29.60;48.86;;
40103;Laerm;25814;48.550;9.108;2023-06-10T01:46:06;30.94;29.80;36.59;;
40103;Laerm;25814;48.550;9.108;2023-06-10T01:48:32;32.13;29.89;40.57;;
40103;Laerm;25814;48.550;9.108;2023-06-10T01:50:59;31.15;30.03;46.76;;
40103;Laerm;25814;48.550;9.108;2023-06-10T01:53:25;31.08;29.85;42.60;;
40103;Laerm;25814;48.550;9.108;2023-06-10T01:55:51;30.94;29.77;33.52;;
40103;Laerm;25814;48.550;9.108;2023-06-10T01:58:17;31.02;29.90;37.61;;
40103;Laerm;25814;48.550;9.108;2023-06-10T02:00:43;31.18;29.87;46.54;;
40103;Laerm;25814;48.550;9.108;2023-06-10T02:03:10;31.23;29.90;49.56;;
40103;Laerm;25814;48.550;9.108;2023-06-10T02:05:36;30.95;29.69;33.32;;
40103;Laerm;25814;48.550;9.108;2023-06-10T02:08:02;31.05;29.93;46.46;;
40103;Laerm;25814;48.550;9.108;2023-06-10T02:10:28;31.00;29.94;36.38;;
40103;Laerm;25814;48.550;9.108;2023-06-10T02:12:55;34.04;29.87;54.41;;
40103;Laerm;25814;48.550;9.108;2023-06-10T02:15:21;36.96;29.98;60.40;;
40103;Laerm;25814;48.550;9.108;2023-06-10T02:17:47;40.35;29.95;56.59;;
40103;Laerm;25814;48.550;9.108;2023-06-10T02:20:16;36.72;29.95;55.27;;
40103;Laerm;25814;48.550;9.108;2023-06-10T02:22:42;33.94;29.97;43.24;;
40103;Laerm;25814;48.550;9.108;2023-06-10T02:25:09;51.24;30.10;70.01;;
40103;Laerm;25814;48.550;9.108;2023-06-10T02:27:35;51.34;30.25;68.88;;
40103;Laerm;25814;48.550;9.108;2023-06-10T02:30:02;50.73;30.69;68.73;;
40103;Laerm;25814;48.550;9.108;2023-06-10T02:32:28;48.23;30.80;60.78;;
40103;Laerm;25814;48.550;9.108;2023-06-10T02:34:55;41.70;31.68;52.38;;
40103;Laerm;25814;48.550;9.108;2023-06-10T02:37:21;42.69;31.62;56.39;;
40103;Laerm;25814;48.550;9.108;2023-06-10T02:39:47;39.86;31.19;53.73;;
40103;Laerm;25814;48.550;9.108;2023-06-10T02:42:13;39.33;31.46;49.56;;
40103;Laerm;25814;48.550;9.108;2023-06-10T02:44:39;45.58;31.65;58.14;;
40103;Laerm;25814;48.550;9.108;2023-06-10T02:47:06;45.02;31.20;58.36;;
40103;Laerm;25814;48.550;9.108;2023-06-10T02:49:32;45.94;31.58;60.45;;
40103;Laerm;25814;48.550;9.108;2023-06-10T02:51:58;46.26;32.05;67.93;;
40103;Laerm;25814;48.550;9.108;2023-06-10T02:54:24;44.39;31.44;62.38;;
40103;Laerm;25814;48.550;9.108;2023-06-10T02:56:51;41.20;31.70;56.32;;
40103;Laerm;25814;48.550;9.108;2023-06-10T02:59:18;41.24;31.16;52.24;;
40103;Laerm;25814;48.550;9.108;2023-06-10T03:01:46;41.91;31.47;51.50;;
40103;Laerm;25814;48.550;9.108;2023-06-10T03:04:12;40.32;31.21;51.64;;
40103;Laerm;25814;48.550;9.108;2023-06-10T03:06:40;40.81;31.37;51.16;;
40103;Laerm;25814;48.550;9.108;2023-06-10T03:09:06;39.71;31.13;48.93;;
40103;Laerm;25814;48.550;9.108;2023-06-10T03:11:33;38.67;31.07;50.46;;
40103;Laerm;25814;48.550;9.108;2023-06-10T03:13:59;41.47;31.48;54.24;;
40103;Laerm;25814;48.550;9.108;2023-06-10T03:16:25;43.00;31.41;55.53;;
40103;Laerm;25814;48.550;9.108;2023-06-10T03:18:53;37.35;31.51;46.16;;
40103;Laerm;25814;48.550;9.108;2023-06-10T03:21:19;37.99;31.22;48.95;;
40103;Laerm;25814;48.550;9.108;2023-06-10T03:23:46;38.46;31.41;48.47;;
40103;Laerm;25814;48.550;9.108;2023-06-10T03:26:12;47.43;31.30;56.27;;
40103;Laerm;25814;48.550;9.108;2023-06-10T03:28:39;38.69;30.89;51.86;;
40103;Laerm;25814;48.550;9.108;2023-06-10T03:31:06;47.70;31.13;56.03;;
40103;Laerm;25814;48.550;9.108;2023-06-10T03:33:32;45.72;31.21;61.72;;
40103;Laerm;25814;48.550;9.108;2023-06-10T03:35:59;39.68;31.24;52.08;;
40103;Laerm;25814;48.550;9.108;2023-06-10T03:38:25;39.20;30.84;52.92;;
40103;Laerm;25814;48.550;9.108;2023-06-10T03:40:51;37.80;30.98;50.30;;
40103;Laerm;25814;48.550;9.108;2023-06-10T03:43:17;41.75;30.98;54.15;;
40103;Laerm;25814;48.550;9.108;2023-06-10T03:45:44;38.98;30.76;51.52;;
40103;Laerm;25814;48.550;9.108;2023-06-10T03:48:10;35.63;30.72;49.14;;
40103;Laerm;25814;48.550;9.108;2023-06-10T03:50:36;37.08;30.52;51.45;;
40103;Laerm;25814;48.550;9.108;2023-06-10T03:53:02;35.67;30.61;47.42;;
40103;Laerm;25814;48.550;9.108;2023-06-10T03:55:29;35.10;30.48;49.32;;
40103;Laerm;25814;48.550;9.108;2023-06-10T03:57:56;43.42;30.64;62.14;;
40103;Laerm;25814;48.550;9.108;2023-06-10T04:00:23;35.47;30.77;49.97;;
40103;Laerm;25814;48.550;9.108;2023-06-10T04:02:49;39.59;30.96;54.61;;
40103;Laerm;25814;48.550;9.108;2023-06-10T04:05:18;46.65;31.55;56.86;;
40103;Laerm;25814;48.550;9.108;2023-06-10T04:07:47;41.99;30.73;56.19;;
40103;Laerm;25814;48.550;9.108;2023-06-10T04:10:14;43.32;30.77;55.76;;
40103;Laerm;25814;48.550;9.108;2023-06-10T04:12:41;43.84;31.00;54.54;;
40103;Laerm;25814;48.550;9.108;2023-06-10T04:15:08;43.51;31.25;67.52;;
40103;Laerm;25814;48.550;9.108;2023-06-10T04:17:34;37.62;30.74;56.29;;
40103;Laerm;25814;48.550;9.108;2023-06-10T04:20:01;43.29;30.92;60.93;;
40103;Laerm;25814;48.550;9.108;2023-06-10T04:22:29;45.09;31.99;60.56;;
40103;Laerm;25814;48.550;9.108;2023-06-10T04:24:55;46.48;32.32;60.03;;
40103;Laerm;25814;48.550;9.108;2023-06-10T04:27:21;38.61;31.02;50.14;;
40103;Laerm;25814;48.550;9.108;2023-06-10T04:29:47;44.75;30.59;65.91;;
40103;Laerm;25814;48.550;9.108;2023-06-10T04:32:14;49.00;30.71;64.70;;
40103;Laerm;25814;48.550;9.108;2023-06-10T04:34:40;47.06;31.21;70.63;;
40103;Laerm;25814;48.550;9.108;2023-06-10T04:37:06;40.54;31.40;55.95;;
40103;Laerm;25814;48.550;9.108;2023-06-10T04:39:32;38.72;31.79;52.60;;
40103;Laerm;25814;48.550;9.108;2023-06-10T04:41:59;41.01;31.16;61.24;;
40103;Laerm;25814;48.550;9.108;2023-06-10T04:44:25;44.06;31.73;62.92;;
40103;Laerm;25814;48.550;9.108;2023-06-10T04:46:52;48.56;31.66;60.33;;
40103;Laerm;25814;48.550;9.108;2023-06-10T04:49:18;49.83;32.90;69.01;;
40103;Laerm;25814;48.550;9.108;2023-06-10T04:51:44;48.75;32.51;65.21;;
40103;Laerm;25814;48.550;9.108;2023-06-10T04:54:10;48.66;31.97;73.15;;
40103;Laerm;25814;48.550;9.108;2023-06-10T04:56:36;50.16;31.57;64.63;;
40103;Laerm;25814;48.550;9.108;2023-06-10T04:59:03;40.07;31.72;56.64;;
40103;Laerm;25814;48.550;9.108;2023-06-10T05:01:29;43.20;31.61;60.74;;
40103;Laerm;25814;48.550;9.108;2023-06-10T05:03:55;35.12;31.44;54.08;;
40103;Laerm;25814;48.550;9.108;2023-06-10T05:06:22;39.98;31.65;59.95;;
40103;Laerm;25814;48.550;9.108;2023-06-10T05:08:48;42.29;32.16;60.00;;
40103;Laerm;25814;48.550;9.108;2023-06-10T05:11:14;43.72;31.50;57.12;;
40103;Laerm;25814;48.550;9.108;2023-06-10T05:13:42;46.04;32.04;62.79;;
40103;Laerm;25814;48.550;9.108;2023-06-10T05:16:09;42.41;31.67;53.35;;
40103;Laerm;25814;48.550;9.108;2023-06-10T05:18:35;43.89;32.01;55.32;;
40103;Laerm;25814;48.550;9.108;2023-06-10T05:21:02;45.92;32.05;55.09;;
40103;Laerm;25814;48.550;9.108;2023-06-10T05:23:28;38.24;31.11;49.75;;
40103;Laerm;25814;48.550;9.108;2023-06-10T05:25:54;41.35;31.50;55.84;;
40103;Laerm;25814;48.550;9.108;2023-06-10T05:28:21;39.27;31.98;54.18;;
40103;Laerm;25814;48.550;9.108;2023-06-10T05:30:47;49.91;31.13;69.86;;
40103;Laerm;25814;48.550;9.108;2023-06-10T05:33:13;36.26;31.28;50.78;;
40103;Laerm;25814;48.550;9.108;2023-06-10T05:35:39;39.01;31.46;54.25;;
40103;Laerm;25814;48.550;9.108;2023-06-10T05:38:06;35.80;31.94;43.77;;
40103;Laerm;25814;48.550;9.108;2023-06-10T05:40:32;45.46;32.31;63.51;;
40103;Laerm;25814;48.550;9.108;2023-06-10T05:42:58;44.52;31.42;63.43;;
40103;Laerm;25814;48.550;9.108;2023-06-10T05:45:25;37.43;31.92;47.11;;
40103;Laerm;25814;48.550;9.108;2023-06-10T05:47:51;45.96;32.68;61.39;;
40103;Laerm;25814;48.550;9.108;2023-06-10T05:50:17;44.43;31.97;59.64;;
40103;Laerm;25814;48.550;9.108;2023-06-10T05:52:43;45.74;31.82;58.91;;
40103;Laerm;25814;48.550;9.108;2023-06-10T05:55:10;45.58;31.40;57.88;;
40103;Laerm;25814;48.550;9.108;2023-06-10T05:57:36;48.24;31.72;57.97;;
40103;Laerm;25814;48.550;9.108;2023-06-10T06:00:03;41.56;31.57;61.62;;
40103;Laerm;25814;48.550;9.108;2023-06-10T06:02:29;41.66;31.26;55.56;;
40103;Laerm;25814;48.550;9.108;2023-06-10T06:04:56;46.90;31.42;59.27;;
40103;Laerm;25814;48.550;9.108;2023-06-10T06:07:22;49.55;31.60;60.75;;
40103;Laerm;25814;48.550;9.108;2023-06-10T06:09:48;45.61;31.58;58.81;;
40103;Laerm;25814;48.550;9.108;2023-06-10T06:12:14;43.40;31.99;54.42;;
40103;Laerm;25814;48.550;9.108;2023-06-10T06:14:40;42.67;31.80;58.90;;
40103;Laerm;25814;48.550;9.108;2023-06-10T06:17:07;46.05;31.71;59.30;;
40103;Laerm;25814;48.550;9.108;2023-06-10T06:19:33;38.80;31.70;49.69;;
40103;Laerm;25814;48.550;9.108;2023-06-10T06:22:00;44.94;31.83;57.97;;
40103;Laerm;25814;48.550;9.108;2023-06-10T06:24:26;42.94;31.61;56.01;;
40103;Laerm;25814;48.550;9.108;2023-06-10T06:26:52;44.59;33.01;53.42;;
40103;Laerm;25814;48.550;9.108;2023-06-10T06:29:18;42.15;31.72;55.24;;
40103;Laerm;25814;48.550;9.108;2023-06-10T06:31:44;41.88;32.28;55.80;;
40103;Laerm;25814;48.550;9.108;2023-06-10T06:34:11;44.72;31.95;59.11;;
40103;Laerm;25814;48.550;9.108;2023-06-10T06:36:37;49.17;31.90;59.69;;
40103;Laerm;25814;48.550;9.108;2023-06-10T06:39:03;47.30;32.01;58.52;;
40103;Laerm;25814;48.550;9.108;2023-06-10T06:41:29;44.19;31.75;59.54;;
40103;Laerm;25814;48.550;9.108;2023-06-10T06:43:55;44.11;31.72;56.22;;
40103;Laerm;25814;48.550;9.108;2023-06-10T06:46:22;42.95;31.52;52.43;;
40103;Laerm;25814;48.550;9.108;2023-06-10T06:48:48;45.04;31.58;55.75;;
40103;Laerm;25814;48.550;9.108;2023-06-10T06:51:15;46.11;31.94;65.88;;
40103;Laerm;25814;48.550;9.108;2023-06-10T06:53:41;56.99;32.75;79.13;;
40103;Laerm;25814;48.550;9.108;2023-06-10T06:56:13;50.45;33.41;77.39;;
40103;Laerm;25814;48.550;9.108;2023-06-10T06:58:40;47.59;32.46;65.37;;
40103;Laerm;25814;48.550;9.108;2023-06-10T07:01:07;44.12;32.63;67.15;;
40103;Laerm;25814;48.550;9.108;2023-06-10T07:03:33;48.67;30.51;71.95;;
40103;Laerm;25814;48.550;9.108;2023-06-10T07:05:59;48.64;32.28;69.80;;
40103;Laerm;25814;48.550;9.108;2023-06-10T07:08:25;45.40;31.09;64.49;;
40103;Laerm;25814;48.550;9.108;2023-06-10T07:10:52;43.08;31.09;60.40;;
40103;Laerm;25814;48.550;9.108;2023-06-10T07:13:18;44.35;30.43;59.74;;
40103;Laerm;25814;48.550;9.108;2023-06-10T07:15:45;42.55;30.85;57.46;;
40103;Laerm;25814;48.550;9.108;2023-06-10T07:18:11;39.11;30.78;52.89;;
40103;Laerm;25814;48.550;9.108;2023-06-10T07:20:37;42.42;30.24;55.63;;
40103;Laerm;25814;48.550;9.108;2023-06-10T07:23:04;39.63;30.21;60.06;;
40103;Laerm;25814;48.550;9.108;2023-06-10T07:25:30;40.23;31.00;56.44;;
40103;Laerm;25814;48.550;9.108;2023-06-10T07:27:56;44.90;30.63;55.12;;
40103;Laerm;25814;48.550;9.108;2023-06-10T07:30:22;41.06;30.85;53.73;;
40103;Laerm;25814;48.550;9.108;2023-06-10T07:32:48;40.02;30.89;59.96;;
40103;Laerm;25814;48.550;9.108;2023-06-10T07:35:16;48.08;30.25;67.63;;
40103;Laerm;25814;48.550;9.108;2023-06-10T07:37:43;48.72;30.93;69.74;;
40103;Laerm;25814;48.550;9.108;2023-06-10T07:40:09;48.97;31.78;69.85;;
40103;Laerm;25814;48.550;9.108;2023-06-10T07:42:36;50.26;31.98;74.62;;
40103;Laerm;25814;48.550;9.108;2023-06-10T07:45:04;50.81;32.24;69.23;;
40103;Laerm;25814;48.550;9.108;2023-06-10T07:47:34;48.35;31.89;69.06;;
40103;Laerm;25814;48.550;9.108;2023-06-10T07:50:00;45.24;31.16;59.00;;
40103;Laerm;25814;48.550;9.108;2023-06-10T07:52:27;47.78;30.65;65.69;;
40103;Laerm;25814;48.550;9.108;2023-06-10T07:54:54;56.33;32.05;79.98;;
40103;Laerm;25814;48.550;9.108;2023-06-10T07:57:20;41.19;30.67;60.98;;
40103;Laerm;25814;48.550;9.108;2023-06-10T07:59:46;51.76;30.58;76.76;;
40103;Laerm;25814;48.550;9.108;2023-06-10T08:02:12;42.99;31.75;56.03;;
40103;Laerm;25814;48.550;9.108;2023-06-10T08:04:39;42.01;30.93;56.24;;
40103;Laerm;25814;48.550;9.108;2023-06-10T08:07:05;46.97;31.28;63.53;;
40103;Laerm;25814;48.550;9.108;2023-06-10T08:09:31;49.78;31.57;63.86;;
40103;Laerm;25814;48.550;9.108;2023-06-10T08:11:57;45.80;30.47;60.18;;
40103;Laerm;25814;48.550;9.108;2023-06-10T08:14:23;51.03;31.50;73.41;;
40103;Laerm;25814;48.550;9.108;2023-06-10T08:16:50;43.28;31.44;63.52;;
40103;Laerm;25814;48.550;9.108;2023-06-10T08:19:16;45.02;32.08;60.73;;
40103;Laerm;25814;48.550;9.108;2023-06-10T08:21:42;40.44;30.82;54.59;;
40103;Laerm;25814;48.550;9.108;2023-06-10T08:24:09;44.72;34.84;63.80;;
40103;Laerm;25814;48.550;9.108;2023-06-10T08:26:35;40.39;32.36;48.41;;
40103;Laerm;25814;48.550;9.108;2023-06-10T08:29:02;41.55;31.14;54.53;;
40103;Laerm;25814;48.550;9.108;2023-06-10T08:31:28;39.19;30.99;56.60;;
40103;Laerm;25814;48.550;9.108;2023-06-10T08:33:54;40.58;31.81;55.18;;
40103;Laerm;25814;48.550;9.108;2023-06-10T08:36:20;44.12;35.27;60.09;;
40103;Laerm;25814;48.550;9.108;2023-06-10T08:38:47;38.60;34.23;47.56;;
40103;Laerm;25814;48.550;9.108;2023-06-10T08:41:17;40.31;34.02;48.18;;
40103;Laerm;25814;48.550;9.108;2023-06-10T08:44:06;41.36;33.85;64.27;;
40103;Laerm;25814;48.550;9.108;2023-06-10T08:46:34;37.90;33.65;53.23;;
40103;Laerm;25814;48.550;9.108;2023-06-10T08:49:06;42.00;32.03;63.83;;
40103;Laerm;25814;48.550;9.108;2023-06-10T08:51:35;46.36;32.44;56.26;;
40103;Laerm;25814;48.550;9.108;2023-06-10T08:54:15;42.30;31.52;54.03;;
40103;Laerm;25814;48.550;9.108;2023-06-10T08:56:49;46.77;32.25;69.79;;
40103;Laerm;25814;48.550;9.108;2023-06-10T08:59:17;49.33;32.72;65.78;;
40103;Laerm;25814;48.550;9.108;2023-06-10T09:01:44;41.08;31.30;55.94;;
40103;Laerm;25814;48.550;9.108;2023-06-10T09:04:11;41.52;32.01;62.62;;
40103;Laerm;25814;48.550;9.108;2023-06-10T09:06:40;44.20;30.49;58.62;;
40103;Laerm;25814;48.550;9.108;2023-06-10T09:09:07;39.38;30.72;53.82;;
40103;Laerm;25814;48.550;9.108;2023-06-10T09:11:33;38.84;31.48;51.86;;
40103;Laerm;25814;48.550;9.108;2023-06-10T09:13:59;42.08;36.33;53.37;;
40103;Laerm;25814;48.550;9.108;2023-06-10T09:16:26;41.72;34.67;51.99;;
40103;Laerm;25814;48.550;9.108;2023-06-10T09:18:53;50.23;36.88;71.23;;
40103;Laerm;25814;48.550;9.108;2023-06-10T09:21:24;51.63;33.72;76.76;;
40103;Laerm;25814;48.550;9.108;2023-06-10T09:23:51;52.47;35.44;77.64;;
40103;Laerm;25814;48.550;9.108;2023-06-10T09:26:18;45.46;32.16;64.25;;
40103;Laerm;25814;48.550;9.108;2023-06-10T09:28:48;40.28;31.83;57.31;;
40103;Laerm;25814;48.550;9.108;2023-06-10T09:31:16;36.57;30.51;48.36;;
40103;Laerm;25814;48.550;9.108;2023-06-10T09:33:45;47.11;32.59;62.89;;
40103;Laerm;25814;48.550;9.108;2023-06-10T09:36:11;42.21;32.62;53.59;;
40103;Laerm;25814;48.550;9.108;2023-06-10T09:38:37;47.79;30.24;73.30;;
40103;Laerm;25814;48.550;9.108;2023-06-10T09:41:04;48.93;30.91;71.12;;
40103;Laerm;25814;48.550;9.108;2023-06-10T09:43:43;52.77;33.80;82.46;;
40103;Laerm;25814;48.550;9.108;2023-06-10T09:46:16;46.11;34.05;69.14;;
40103;Laerm;25814;48.550;9.108;2023-06-10T09:48:45;51.93;31.41;73.95;;
40103;Laerm;25814;48.550;9.108;2023-06-10T09:51:13;48.31;32.68;67.43;;
40103;Laerm;25814;48.550;9.108;2023-06-10T09:53:40;54.64;32.38;74.70;;
40103;Laerm;25814;48.550;9.108;2023-06-10T09:56:07;54.77;33.64;78.18;;
40103;Laerm;25814;48.550;9.108;2023-06-10T09:58:38;48.28;33.22;67.71;;
40103;Laerm;25814;48.550;9.108;2023-06-10T10:01:13;47.59;31.88;68.05;;
40103;Laerm;25814;48.550;9.108;2023-06-10T10:03:49;44.58;31.75;60.15;;
40103;Laerm;25814;48.550;9.108;2023-06-10T10:06:17;57.53;32.40;67.05;;
40103;Laerm;25814;48.550;9.108;2023-06-10T10:08:46;62.46;31.94;65.99;;
40103;Laerm;25814;48.550;9.108;2023-06-10T10:11:16;60.45;31.89;66.66;;
40103;Laerm;25814;48.550;9.108;2023-06-10T10:13:45;60.56;39.44;66.59;;
40103;Laerm;25814;48.550;9.108;2023-06-10T10:16:17;60.82;35.73;69.27;;
40103;Laerm;25814;48.550;9.108;2023-06-10T10:18:57;63.00;61.29;64.92;;
40103;Laerm;25814;48.550;9.108;2023-06-10T10:21:31;60.97;33.02;64.39;;
40103;Laerm;25814;48.550;9.108;2023-06-10T10:24:18;61.82;32.65;65.25;;
40103;Laerm;25814;48.550;9.108;2023-06-10T10:26:49;61.72;35.77;64.05;;
40103;Laerm;25814;48.550;9.108;2023-06-10T10:29:33;59.29;33.31;78.28;;
40103;Laerm;25814;48.550;9.108;2023-06-10T10:32:03;58.50;34.36;63.87;;
40103;Laerm;25814;48.550;9.108;2023-06-10T10:37:31;57.37;30.68;63.88;;
40103;Laerm;25814;48.550;9.108;2023-06-10T10:39:59;60.49;32.77;64.29;;
40103;Laerm;25814;48.550;9.108;2023-06-10T10:42:26;55.19;30.93;64.25;;
40103;Laerm;25814;48.550;9.108;2023-06-10T10:44:54;60.18;35.67;65.23;;
40103;Laerm;25814;48.550;9.108;2023-06-10T10:47:22;48.38;33.20;69.03;;
40103;Laerm;25814;48.550;9.108;2023-06-10T10:49:52;39.72;31.20;58.71;;
40103;Laerm;25814;48.550;9.108;2023-06-10T10:52:19;61.88;33.06;72.42;;
40103;Laerm;25814;48.550;9.108;2023-06-10T10:54:46;61.14;33.39;65.68;;
40103;Laerm;25814;48.550;9.108;2023-06-10T10:57:16;63.61;62.07;65.39;;
40103;Laerm;25814;48.550;9.108;2023-06-10T11:02:18;63.55;60.49;66.24;;
40103;Laerm;25814;48.550;9.108;2023-06-10T11:04:57;57.56;32.78;65.37;;
40103;Laerm;25814;48.550;9.108;2023-06-10T11:07:25;45.45;36.24;56.77;;
40103;Laerm;25814;48.550;9.108;2023-06-10T11:10:08;47.44;31.90;64.58;;
40103;Laerm;25814;48.550;9.108;2023-06-10T11:12:51;45.41;31.22;54.68;;
40103;Laerm;25814;48.550;9.108;2023-06-10T11:15:24;46.54;31.96;67.13;;
40103;Laerm;25814;48.550;9.108;2023-06-10T11:29:06;46.99;35.30;62.33;;
40103;Laerm;25814;48.550;9.108;2023-06-10T11:31:44;41.33;34.18;60.11;;
40103;Laerm;25814;48.550;9.108;2023-06-10T11:34:12;46.21;33.97;63.69;;
40103;Laerm;25814;48.550;9.108;2023-06-10T11:36:43;43.30;32.23;62.30;;
40103;Laerm;25814;48.550;9.108;2023-06-10T11:39:11;45.48;31.26;62.24;;
40103;Laerm;25814;48.550;9.108;2023-06-10T11:41:39;41.61;31.21;57.54;;
40103;Laerm;25814;48.550;9.108;2023-06-10T11:44:13;43.15;31.53;58.85;;
40103;Laerm;25814;48.550;9.108;2023-06-10T11:46:40;44.04;33.85;59.63;;
40103;Laerm;25814;48.550;9.108;2023-06-10T11:49:08;42.20;34.43;61.90;;
40103;Laerm;25814;48.550;9.108;2023-06-10T11:51:37;41.98;31.29;57.12;;
40103;Laerm;25814;48.550;9.108;2023-06-10T11:54:05;43.98;31.76;58.78;;
40103;Laerm;25814;48.550;9.108;2023-06-10T11:56:32;37.18;31.95;51.53;;
40103;Laerm;25814;48.550;9.108;2023-06-10T11:59:07;36.92;30.85;52.29;;
40103;Laerm;25814;48.550;9.108;2023-06-10T12:01:41;41.46;31.97;58.30;;
40103;Laerm;25814;48.550;9.108;2023-06-10T12:04:11;41.63;32.49;58.69;;
40103;Laerm;25814;48.550;9.108;2023-06-10T12:06:53;44.70;33.68;58.44;;
40103;Laerm;25814;48.550;9.108;2023-06-10T12:12:03;48.43;30.84;67.74;;
40103;Laerm;25814;48.550;9.108;2023-06-10T12:14:58;51.03;30.83;77.66;;
40103;Laerm;25814;48.550;9.108;2023-06-10T12:19:56;46.17;32.48;61.07;;
40103;Laerm;25814;48.550;9.108;2023-06-10T12:22:23;48.55;32.15;72.86;;
40103;Laerm;25814;48.550;9.108;2023-06-10T12:25:05;48.18;34.65;66.61;;
40103;Laerm;25814;48.550;9.108;2023-06-10T12:27:33;48.26;33.40;62.95;;
40103;Laerm;25814;48.550;9.108;2023-06-10T12:30:02;50.46;31.20;63.66;;
40103;Laerm;25814;48.550;9.108;2023-06-10T12:32:42;47.42;31.06;63.63;;
40103;Laerm;25814;48.550;9.108;2023-06-10T12:35:15;45.41;30.94;64.42;;
40103;Laerm;25814;48.550;9.108;2023-06-10T12:38:04;52.96;31.51;80.85;;
40103;Laerm;25814;48.550;9.108;2023-06-10T12:40:38;47.80;32.95;65.89;;
40103;Laerm;25814;48.550;9.108;2023-06-10T12:43:06;51.78;31.70;76.84;;
40103;Laerm;25814;48.550;9.108;2023-06-10T12:45:38;45.11;32.07;64.27;;
40103;Laerm;25814;48.550;9.108;2023-06-10T12:48:24;48.96;32.48;75.36;;
40103;Laerm;25814;48.550;9.108;2023-06-10T12:50:55;39.29;31.85;52.33;;
40103;Laerm;25814;48.550;9.108;2023-06-10T12:53:23;38.35;32.11;46.47;;
40103;Laerm;25814;48.550;9.108;2023-06-10T12:55:51;36.92;31.00;49.54;;
40103;Laerm;25814;48.550;9.108;2023-06-10T12:58:19;40.56;31.00;57.42;;
40103;Laerm;25814;48.550;9.108;2023-06-10T13:00:45;38.60;31.00;57.57;;
40103;Laerm;25814;48.550;9.108;2023-06-10T13:03:12;37.54;31.14;46.71;;
40103;Laerm;25814;48.550;9.108;2023-06-10T13:05:38;40.21;31.45;49.96;;
40103;Laerm;25814;48.550;9.108;2023-06-10T13:08:06;37.20;30.60;47.24;;
40103;Laerm;25814;48.550;9.108;2023-06-10T13:10:33;35.75;30.54;44.92;;
40103;Laerm;25814;48.550;9.108;2023-06-10T13:13:01;37.27;31.26;60.89;;
40103;Laerm;25814;48.550;9.108;2023-06-10T13:15:28;37.91;32.08;50.38;;
40103;Laerm;25814;48.550;9.108;2023-06-10T13:17:54;45.44;31.48;71.93;;
40103;Laerm;25814;48.550;9.108;2023-06-10T13:20:20;43.16;33.69;54.59;;
40103;Laerm;25814;48.550;9.108;2023-06-10T13:22:47;46.24;31.89;57.34;;
40103;Laerm;25814;48.550;9.108;2023-06-10T13:25:14;64.27;32.14;72.65;;
40103;Laerm;25814;48.550;9.108;2023-06-10T13:27:40;65.80;63.89;67.65;;
40103;Laerm;25814;48.550;9.108;2023-06-10T13:30:09;59.79;31.11;67.38;;
40103;Laerm;25814;48.550;9.108;2023-06-10T13:32:36;38.57;30.61;56.59;;
40103;Laerm;25814;48.550;9.108;2023-06-10T13:35:03;40.21;30.88;55.12;;
40103;Laerm;25814;48.550;9.108;2023-06-10T13:37:29;38.28;30.70;53.38;;
40103;Laerm;25814;48.550;9.108;2023-06-10T13:39:55;59.92;32.10;71.36;;
40103;Laerm;25814;48.550;9.108;2023-06-10T13:42:21;65.82;64.03;69.08;;
40103;Laerm;25814;48.550;9.108;2023-06-10T13:44:48;59.12;46.00;66.84;;
40103;Laerm;25814;48.550;9.108;2023-06-10T13:47:14;55.05;34.30;67.35;;
40103;Laerm;25814;48.550;9.108;2023-06-10T13:49:41;71.65;48.58;75.40;;
40103;Laerm;25814;48.550;9.108;2023-06-10T13:52:08;68.06;34.33;72.75;;
40103;Laerm;25814;48.550;9.108;2023-06-10T13:54:34;59.58;32.37;76.69;;
40103;Laerm;25814;48.550;9.108;2023-06-10T13:57:04;57.44;47.23;74.57;;
40103;Laerm;25814;48.550;9.108;2023-06-10T13:59:30;47.78;33.47;63.80;;
40103;Laerm;25814;48.550;9.108;2023-06-10T14:01:56;48.73;32.43;57.99;;
40103;Laerm;25814;48.550;9.108;2023-06-10T14:04:23;56.42;31.18;70.21;;
40103;Laerm;25814;48.550;9.108;2023-06-10T14:06:49;66.29;33.00;72.57;;
40103;Laerm;25814;48.550;9.108;2023-06-10T14:09:16;54.01;33.11;70.21;;
40103;Laerm;25814;48.550;9.108;2023-06-10T14:11:42;41.63;32.89;57.97;;
40103;Laerm;25814;48.550;9.108;2023-06-10T14:14:09;44.15;32.90;57.22;;
40103;Laerm;25814;48.550;9.108;2023-06-10T14:16:35;46.44;35.43;61.31;;